createdAt,value
2023-06-18T00:01:18.390Z,100047.64
2023-06-18T00:03:46.189Z,100046.64
2023-06-18T00:06:13.951Z,100046.79
2023-06-18T00:08:41.696Z,100045.23
2023-06-18T00:11:10.399Z,100050.83
2023-06-18T00:13:38.091Z,100051.39
2023-06-18T00:16:06.021Z,100053.23
2023-06-18T00:18:34.532Z,100046.59
2023-06-18T00:21:04.378Z,100045.24
2023-06-18T00:23:32.089Z,100042.34
2023-06-18T00:25:59.798Z,100041.77
2023-06-18T00:28:29.849Z,100046.06
2023-06-18T00:30:57.950Z,100048.33
2023-06-18T00:33:26.080Z,100046.55
2023-06-18T00:36:00.329Z,100043.91
2023-06-18T00:38:29.821Z,100043.20
2023-06-18T00:40:57.831Z,100041.36
2023-06-18T00:43:28.592Z,100044.27
2023-06-18T00:46:00.628Z,100047.71
2023-06-18T00:48:29.528Z,100051.30
2023-06-18T00:50:57.377Z,100047.27
2023-06-18T00:53:26.288Z,100043.04
2023-06-18T00:55:54.255Z,100039.02
2023-06-18T00:58:24.708Z,100041.60
2023-06-18T01:00:52.743Z,100044.55
2023-06-18T01:03:24.064Z,100047.07
2023-06-18T01:05:57.775Z,100051.27
2023-06-18T01:08:26.244Z,100053.05
2023-06-18T01:11:05.695Z,100050.98
2023-06-18T01:13:37.799Z,100054.90
2023-06-18T01:16:07.739Z,100051.66
2023-06-18T01:18:47.359Z,100053.75
2023-06-18T01:21:21.763Z,100053.52
2023-06-18T01:23:54.269Z,100047.83
2023-06-18T01:26:23.200Z,100043.09
2023-06-18T01:29:00.350Z,100043.32
2023-06-18T01:31:35.587Z,100044.77
2023-06-18T01:34:05.292Z,100048.71
2023-06-18T01:36:38.928Z,100048.14
2023-06-18T01:39:32.406Z,100049.91
2023-06-18T01:42:13.736Z,100053.80
2023-06-18T01:44:44.874Z,100057.73
2023-06-18T01:47:15.628Z,100059.71
2023-06-18T01:49:45.646Z,100059.10
2023-06-18T01:52:17.146Z,100060.30
2023-06-18T01:54:47.925Z,100061.73
2023-06-18T01:57:16.068Z,100063.27
2023-06-18T01:59:44.740Z,100063.95
2023-06-18T02:02:13.504Z,100069.06
2023-06-18T02:04:46.634Z,100068.56
2023-06-18T02:07:15.383Z,100067.38
2023-06-18T02:09:44.500Z,100067.64
2023-06-18T02:12:13.120Z,100068.78
2023-06-18T02:14:40.959Z,100070.19
2023-06-18T02:17:08.755Z,100073.05
2023-06-18T02:19:36.461Z,100072.13
2023-06-18T02:22:04.463Z,100076.87
2023-06-18T02:24:34.137Z,100075.01
2023-06-18T02:27:02.240Z,100076.95
2023-06-18T02:29:29.906Z,100078.18
2023-06-18T02:31:57.599Z,100079.86
2023-06-18T02:34:28.472Z,100081.63
2023-06-18T02:36:56.947Z,100080.13
2023-06-18T02:39:24.697Z,100082.90
2023-06-18T02:41:52.403Z,100084.12
2023-06-18T02:44:21.116Z,100083.15
2023-06-18T02:46:48.888Z,100083.20
2023-06-18T02:49:16.640Z,100086.22
2023-06-18T02:51:44.442Z,100089.40
2023-06-18T02:54:12.137Z,100087.42
2023-06-18T02:56:40.321Z,100087.48
2023-06-18T02:59:08.117Z,100083.22
2023-06-18T03:01:37.507Z,100084.06
2023-06-18T03:04:06.032Z,100084.36
2023-06-18T03:06:34.011Z,100083.64
2023-06-18T03:09:03.432Z,100089.79
2023-06-18T03:11:31.643Z,100091.64
2023-06-18T03:14:00.427Z,100096.30
2023-06-18T03:16:28.619Z,100097.52
2023-06-18T03:18:57.920Z,100099.07
2023-06-18T03:21:25.870Z,100104.22
2023-06-18T03:23:55.620Z,100103.84
2023-06-18T03:26:24.167Z,100101.77
2023-06-18T03:28:51.931Z,100099.05
2023-06-18T03:31:22.651Z,100100.20
2023-06-18T03:33:51.178Z,100109.02
2023-06-18T03:36:18.882Z,100107.74
2023-06-18T03:38:47.141Z,100109.75
2023-06-18T03:41:15.257Z,100107.28
2023-06-18T03:43:43.515Z,100110.58
2023-06-18T03:46:11.351Z,100111.13
2023-06-18T03:48:39.789Z,100109.89
2023-06-18T03:51:07.770Z,100115.71
2023-06-18T03:53:38.641Z,100117.52
2023-06-18T03:56:08.224Z,100112.26
2023-06-18T03:58:36.075Z,100111.59
2023-06-18T04:01:05.214Z,100119.06
2023-06-18T04:03:33.157Z,100120.23
2023-06-18T04:06:00.955Z,100123.42
2023-06-18T04:08:29.688Z,100125.07
2023-06-18T04:10:57.722Z,100127.80
2023-06-18T04:13:26.255Z,100132.05
2023-06-18T04:15:54.388Z,100134.23
2023-06-18T04:18:22.563Z,100134.77
2023-06-18T04:20:50.291Z,100134.98
2023-06-18T04:23:18.368Z,100133.16
2023-06-18T04:25:46.102Z,100134.59
2023-06-18T04:28:13.854Z,100138.59
2023-06-18T04:30:42.168Z,100141.04
2023-06-18T04:33:09.834Z,100144.09
2023-06-18T04:35:38.114Z,100146.64
2023-06-18T04:38:07.830Z,100148.77
2023-06-18T04:40:36.395Z,100150.75
2023-06-18T04:43:04.816Z,100155.48
2023-06-18T04:45:38.898Z,100158.02
2023-06-18T04:48:09.248Z,100160.02
2023-06-18T04:50:37.355Z,100158.60
2023-06-18T04:53:05.195Z,100159.23
2023-06-18T04:55:32.990Z,100157.38
2023-06-18T04:58:01.473Z,100148.30
2023-06-18T05:00:30.052Z,100150.44
2023-06-18T05:03:01.856Z,100157.71
2023-06-18T05:05:30.214Z,100155.81
2023-06-18T05:07:57.979Z,100153.05
2023-06-18T05:10:26.410Z,100150.48
2023-06-18T05:12:55.355Z,100149.41
2023-06-18T05:15:23.076Z,100152.41
2023-06-18T05:17:51.007Z,100153.44
2023-06-18T05:20:19.174Z,100155.35
2023-06-18T05:22:47.142Z,100161.77
2023-06-18T05:25:15.061Z,100162.64
2023-06-18T05:27:44.115Z,100165.37
2023-06-18T05:30:12.357Z,100169.29
2023-06-18T05:32:40.143Z,100171.02
2023-06-18T05:35:11.092Z,100171.19
2023-06-18T05:37:45.073Z,100176.92
2023-06-18T05:40:13.909Z,100177.96
2023-06-18T05:42:42.208Z,100183.21
2023-06-18T05:45:11.020Z,100183.03
2023-06-18T05:47:39.054Z,100185.61
2023-06-18T05:50:09.742Z,100188.02
2023-06-18T05:52:37.669Z,100184.73
2023-06-18T05:55:07.696Z,100185.33
2023-06-18T05:57:36.630Z,100187.02
2023-06-18T06:00:05.548Z,100184.71
2023-06-18T06:02:41.785Z,100185.08
2023-06-18T06:05:11.133Z,100192.02
2023-06-18T06:07:39.912Z,100195.33
2023-06-18T06:10:08.970Z,100199.34
2023-06-18T06:12:38.504Z,100199.34
2023-06-18T06:15:07.005Z,100199.27
2023-06-18T06:17:34.729Z,100202.67
2023-06-18T06:20:04.051Z,100203.83
2023-06-18T06:22:31.931Z,100208.88
2023-06-18T06:24:59.680Z,100207.73
2023-06-18T06:27:27.462Z,100206.77
2023-06-18T06:29:55.283Z,100206.58
2023-06-18T06:32:22.998Z,100205.85
2023-06-18T06:34:50.708Z,100209.47
2023-06-18T06:37:19.689Z,100212.02
2023-06-18T06:39:49.390Z,100210.92
2023-06-18T06:42:18.084Z,100212.42
2023-06-18T06:44:48.645Z,100212.48
2023-06-18T06:47:32.757Z,100214.96
2023-06-18T06:50:26.702Z,100205.27
2023-06-18T06:53:05.528Z,100198.30
2023-06-18T06:55:33.559Z,100196.42
2023-06-18T06:58:01.674Z,100200.21
2023-06-18T07:00:29.777Z,100205.27
2023-06-18T07:02:57.787Z,100208.60
2023-06-18T07:05:26.994Z,100209.49
2023-06-18T07:07:54.833Z,100211.28
2023-06-18T07:10:22.858Z,100219.39
2023-06-18T07:12:50.772Z,100213.07
2023-06-18T07:15:18.586Z,100209.92
2023-06-18T07:17:46.433Z,100210.61
2023-06-18T07:20:15.178Z,100213.23
2023-06-18T07:22:42.910Z,100211.05
2023-06-18T07:25:10.773Z,100210.12
2023-06-18T07:27:38.474Z,100217.59
2023-06-18T07:30:07.029Z,100220.27
2023-06-18T07:32:35.096Z,100225.50
2023-06-18T07:35:02.842Z,100221.98
2023-06-18T07:37:30.594Z,100224.25
2023-06-18T07:39:58.390Z,100224.16
2023-06-18T07:42:26.178Z,100223.61
2023-06-18T07:44:54.242Z,100229.20
2023-06-18T07:47:22.091Z,100228.98
2023-06-18T07:49:50.203Z,100233.95
2023-06-18T07:52:18.379Z,100234.19
2023-06-18T07:54:46.155Z,100232.33
2023-06-18T07:57:13.924Z,100237.42
2023-06-18T07:59:41.674Z,100234.58
2023-06-18T08:02:10.261Z,100241.34
2023-06-18T08:04:38.901Z,100245.25
2023-06-18T08:07:06.751Z,100245.19
2023-06-18T08:09:35.058Z,100245.16
2023-06-18T08:12:02.814Z,100239.70
2023-06-18T08:14:30.599Z,100245.76
2023-06-18T08:16:58.343Z,100246.23
2023-06-18T08:19:26.216Z,100246.04
2023-06-18T08:21:54.361Z,100244.36
2023-06-18T08:24:23.622Z,100246.36
2023-06-18T08:26:51.744Z,100246.19
2023-06-18T08:29:20.420Z,100246.84
2023-06-18T08:31:48.306Z,100250.02
2023-06-18T08:34:15.974Z,100250.38
2023-06-18T08:36:47.570Z,100249.91
2023-06-18T08:39:16.035Z,100249.55
2023-06-18T08:41:47.638Z,100244.72
2023-06-18T08:44:15.584Z,100242.43
2023-06-18T08:46:44.406Z,100240.44
2023-06-18T08:49:15.921Z,100242.08
2023-06-18T08:51:46.217Z,100242.99
2023-06-18T08:54:16.481Z,100245.04
2023-06-18T08:56:46.049Z,100248.94
2023-06-18T08:59:14.689Z,100245.70
2023-06-18T09:01:44.235Z,100247.58
2023-06-18T09:04:13.373Z,100241.50
2023-06-18T09:06:42.581Z,100241.55
2023-06-18T09:09:12.009Z,100238.85
2023-06-18T09:11:39.739Z,100239.63
2023-06-18T09:14:07.698Z,100241.52
2023-06-18T09:16:35.496Z,100240.22
2023-06-18T09:19:05.587Z,100243.13
2023-06-18T09:21:41.492Z,100243.59
2023-06-18T09:24:12.845Z,100242.78
2023-06-18T09:26:40.655Z,100244.49
2023-06-18T09:29:10.620Z,100239.92
2023-06-18T09:31:42.608Z,100233.79
2023-06-18T09:34:17.048Z,100223.95
2023-06-18T09:36:48.097Z,100219.68
2023-06-18T09:39:24.577Z,100216.15
2023-06-18T09:41:54.737Z,100225.89
2023-06-18T09:44:24.034Z,100228.17
2023-06-18T09:46:58.331Z,100232.00
2023-06-18T09:49:28.250Z,100230.86
2023-06-18T09:51:56.462Z,100228.16
2023-06-18T09:54:37.645Z,100215.41
2023-06-18T09:57:07.359Z,100211.20
2023-06-18T09:59:35.720Z,100212.14
2023-06-18T10:02:03.581Z,100217.34
2023-06-18T10:04:33.639Z,100217.17
2023-06-18T10:22:58.358Z,100210.05
2023-06-18T10:25:26.710Z,100210.77
2023-06-18T10:27:55.214Z,100213.96
2023-06-18T10:30:23.311Z,100223.02
2023-06-18T10:32:51.849Z,100226.67
2023-06-18T10:35:21.539Z,100226.05
2023-06-18T10:37:49.639Z,100226.45
2023-06-18T10:40:17.522Z,100227.79
2023-06-18T10:42:49.542Z,100231.52
2023-06-18T10:45:18.730Z,100235.55
2023-06-18T10:47:46.562Z,100237.36
2023-06-18T10:50:17.783Z,100244.30
2023-06-18T10:52:50.354Z,100248.81
2023-06-18T10:55:29.998Z,100263.69
2023-06-18T10:58:04.057Z,100271.17
2023-06-18T11:00:39.439Z,100277.23
2023-06-18T11:03:12.780Z,100275.55
2023-06-18T11:05:41.495Z,100271.59
2023-06-18T11:08:11.593Z,100279.29
2023-06-18T11:10:42.463Z,100289.27
2023-06-18T11:13:14.504Z,100297.95
2023-06-18T11:15:58.547Z,100305.27
2023-06-18T11:18:28.157Z,100304.86
2023-06-18T11:20:56.803Z,100308.09
2023-06-18T11:23:25.344Z,100313.24
2023-06-18T11:25:53.646Z,100310.33
2023-06-18T11:28:23.228Z,100297.61
2023-06-18T11:30:57.414Z,100289.86
2023-06-18T11:33:27.277Z,100283.77
2023-06-18T11:36:06.649Z,100279.08
2023-06-18T11:38:34.544Z,100284.70
2023-06-18T11:41:02.427Z,100280.62
2023-06-18T11:43:52.701Z,100283.68
2023-06-18T11:46:31.560Z,100288.20
2023-06-18T11:49:00.832Z,100301.34
2023-06-18T11:51:30.772Z,100299.96
2023-06-18T11:53:58.654Z,100299.20
2023-06-18T11:56:29.438Z,100293.55
2023-06-18T11:58:58.915Z,100284.69
2023-06-18T12:01:31.314Z,100275.38
2023-06-18T12:04:08.705Z,100270.45
2023-06-18T12:06:37.834Z,100268.21
2023-06-18T12:09:11.264Z,100270.90
2023-06-18T12:12:06.042Z,100269.91
2023-06-18T12:14:42.954Z,100267.59
2023-06-18T12:17:48.020Z,100268.97
2023-06-18T12:20:16.074Z,100267.20
2023-06-18T12:22:45.920Z,100264.73
2023-06-18T12:25:14.409Z,100267.46
2023-06-18T12:27:44.253Z,100271.27
2023-06-18T12:30:14.174Z,100265.55
2023-06-18T12:32:42.598Z,100261.67
2023-06-18T12:35:18.722Z,100263.27
2023-06-18T12:37:49.656Z,100258.73
2023-06-18T12:40:23.969Z,100253.39
2023-06-18T12:42:52.769Z,100246.88
2023-06-18T12:45:32.140Z,100240.13
2023-06-18T12:48:11.591Z,100237.38
2023-06-18T12:50:39.233Z,100239.66
2023-06-18T12:53:22.005Z,100245.16
2023-06-18T12:55:52.748Z,100237.85
2023-06-18T12:58:24.956Z,100230.06
2023-06-18T13:00:57.267Z,100224.84
2023-06-18T13:03:27.455Z,100223.33
2023-06-18T13:05:58.213Z,100221.37
2023-06-18T13:08:26.216Z,100213.60
2023-06-18T13:10:55.984Z,100211.88
2023-06-18T13:13:24.073Z,100216.48
2023-06-18T13:15:53.254Z,100217.17
2023-06-18T13:18:21.773Z,100217.50
2023-06-18T13:20:50.824Z,100216.92
2023-06-18T13:23:19.162Z,100218.94
2023-06-18T13:25:46.946Z,100216.40
2023-06-18T13:28:18.095Z,100210.69
2023-06-18T13:30:46.349Z,100214.71
2023-06-18T13:33:14.110Z,100211.68
2023-06-18T13:35:42.112Z,100212.20
2023-06-18T13:38:10.855Z,100207.95
2023-06-18T13:40:39.432Z,100206.19
2023-06-18T13:43:07.296Z,100208.27
2023-06-18T13:45:34.993Z,100208.44
2023-06-18T13:48:03.258Z,100206.22
2023-06-18T13:50:31.078Z,100199.80
2023-06-18T13:52:58.821Z,100199.64
2023-06-18T13:55:26.869Z,100200.21
2023-06-18T13:57:54.774Z,100201.45
2023-06-18T14:00:23.179Z,100199.40
2023-06-18T14:02:51.079Z,100199.63
2023-06-18T14:05:19.256Z,100192.15
2023-06-18T14:07:47.787Z,100192.70
2023-06-18T14:10:15.776Z,100193.73
2023-06-18T14:12:43.581Z,100195.48
2023-06-18T14:15:11.513Z,100190.54
2023-06-18T14:17:39.680Z,100190.91
2023-06-18T14:20:08.244Z,100184.02
2023-06-18T14:22:36.556Z,100184.54
2023-06-18T14:25:05.206Z,100182.55
2023-06-18T14:27:33.402Z,100176.75
2023-06-18T14:30:01.312Z,100178.37
2023-06-18T14:32:30.645Z,100180.52
2023-06-18T14:34:58.347Z,100181.63
2023-06-18T14:37:26.482Z,100184.19
2023-06-18T14:39:54.736Z,100183.22
2023-06-18T14:42:22.402Z,100183.13
2023-06-18T14:44:50.172Z,100189.11
2023-06-18T14:47:18.021Z,100199.48
2023-06-18T14:49:45.948Z,100203.30
2023-06-18T14:52:13.685Z,100208.35
2023-06-18T14:54:41.710Z,100210.08
2023-06-18T14:57:09.525Z,100215.30
2023-06-18T14:59:37.955Z,100222.78
2023-06-18T15:02:19.655Z,100228.02
2023-06-18T15:04:54.331Z,100225.27
2023-06-18T15:07:22.327Z,100227.29
2023-06-18T15:09:50.193Z,100224.42
2023-06-18T15:12:18.004Z,100227.58
2023-06-18T15:14:46.247Z,100230.46
2023-06-18T15:17:14.217Z,100238.55
2023-06-18T15:19:42.592Z,100237.87
2023-06-18T15:22:10.483Z,100235.54
2023-06-18T15:24:38.265Z,100230.85
2023-06-18T15:27:06.244Z,100230.55
2023-06-18T15:29:34.005Z,100224.88
2023-06-18T15:32:01.702Z,100227.27
2023-06-18T15:34:29.513Z,100232.94
2023-06-18T15:36:58.187Z,100237.65
2023-06-18T15:39:27.308Z,100246.63
2023-06-18T15:41:54.905Z,100255.45
2023-06-18T15:44:22.529Z,100257.23
2023-06-18T15:46:50.182Z,100259.88
2023-06-18T15:49:18.384Z,100260.73
2023-06-18T15:51:46.104Z,100257.61
2023-06-18T15:54:14.777Z,100259.13
2023-06-18T15:56:43.610Z,100258.02
2023-06-18T15:59:11.670Z,100254.80
2023-06-18T16:01:41.911Z,100250.48
2023-06-18T16:04:09.839Z,100247.98
2023-06-18T16:06:37.618Z,100249.80
2023-06-18T16:09:05.622Z,100255.05
2023-06-18T16:11:34.424Z,100255.45
2023-06-18T16:14:02.518Z,100258.70
2023-06-18T16:16:30.459Z,100259.66
2023-06-18T16:18:58.384Z,100255.15
2023-06-18T16:21:28.872Z,100256.95
2023-06-18T16:23:56.828Z,100261.65
2023-06-18T16:26:26.356Z,100263.94
2023-06-18T16:28:54.807Z,100264.92
2023-06-18T16:31:23.365Z,100258.02
2023-06-18T16:33:51.168Z,100262.41
2023-06-18T16:36:19.020Z,100259.88
2023-06-18T16:38:46.830Z,100261.44
2023-06-18T16:41:14.570Z,100262.10
2023-06-18T16:43:42.270Z,100266.30
2023-06-18T16:46:10.319Z,100278.27
2023-06-18T16:48:38.152Z,100300.26
2023-06-18T16:51:05.941Z,100303.80
2023-06-18T16:53:33.627Z,100301.30
2023-06-18T16:56:01.364Z,100291.59
2023-06-18T16:58:29.075Z,100297.49
2023-06-18T17:00:57.299Z,100304.59
2023-06-18T17:03:25.102Z,100304.08
2023-06-18T17:05:54.882Z,100294.84
2023-06-18T17:08:23.544Z,100286.02
2023-06-18T17:10:51.891Z,100282.95
2023-06-18T17:13:19.764Z,100283.18
2023-06-18T17:15:49.066Z,100285.39
2023-06-18T17:18:18.128Z,100287.23
2023-06-18T17:20:45.894Z,100283.56
2023-06-18T17:23:13.687Z,100277.64
2023-06-18T17:25:41.364Z,100279.17
2023-06-18T17:28:09.570Z,100277.35
2023-06-18T17:30:37.327Z,100279.96
2023-06-18T17:33:05.329Z,100280.10
2023-06-18T17:35:33.116Z,100284.56
2023-06-18T17:38:01.247Z,100290.55
2023-06-18T17:40:28.983Z,100290.91
2023-06-18T17:42:57.110Z,100292.37
2023-06-18T17:45:25.108Z,100294.20
2023-06-18T17:47:53.416Z,100297.56
2023-06-18T17:50:21.425Z,100295.73
2023-06-18T17:52:50.105Z,100297.59
2023-06-18T17:55:17.992Z,100298.30
2023-06-18T17:57:45.846Z,100295.16
2023-06-18T18:00:14.910Z,100296.66
2023-06-18T18:02:42.648Z,100295.78
2023-06-18T18:05:11.069Z,100293.31
2023-06-18T18:07:38.882Z,100296.05
2023-06-18T18:10:07.037Z,100295.59
2023-06-18T18:12:34.812Z,100299.69
2023-06-18T18:15:02.603Z,100305.23
2023-06-18T18:17:30.409Z,100308.49
2023-06-18T18:19:58.124Z,100310.27
2023-06-18T18:22:26.031Z,100309.62
2023-06-18T18:24:53.859Z,100306.67
2023-06-18T18:27:21.710Z,100308.06
2023-06-18T18:29:49.384Z,100308.73
2023-06-18T18:32:17.156Z,100307.61
2023-06-18T18:34:47.672Z,100311.10
2023-06-18T18:37:15.552Z,100310.95
2023-06-18T18:39:44.302Z,100310.66
2023-06-18T18:42:12.107Z,100311.33
2023-06-18T18:44:41.320Z,100307.63
2023-06-18T18:47:09.024Z,100309.33
2023-06-18T18:49:36.735Z,100311.52
2023-06-18T18:52:04.805Z,100315.37
2023-06-18T18:54:32.816Z,100316.54
2023-06-18T18:57:00.581Z,100314.71
2023-06-18T18:59:28.906Z,100310.43
2023-06-18T19:01:56.709Z,100308.54
2023-06-18T19:04:24.392Z,100309.52
2023-06-18T19:06:52.445Z,100304.60
2023-06-18T19:09:20.234Z,100303.48
2023-06-18T19:11:48.005Z,100301.65
2023-06-18T19:14:15.747Z,100312.52
2023-06-18T19:16:43.608Z,100316.32
2023-06-18T19:19:11.298Z,100316.48
2023-06-18T19:21:40.564Z,100318.05
2023-06-18T19:24:08.261Z,100321.59
2023-06-18T19:26:37.381Z,100320.48
2023-06-18T19:29:07.843Z,100317.86
2023-06-18T19:31:35.646Z,100324.42
2023-06-18T19:34:03.481Z,100327.74
2023-06-18T19:36:31.140Z,100324.64
2023-06-18T19:38:58.895Z,100328.64
2023-06-18T19:41:27.173Z,100323.25
2023-06-18T19:43:54.951Z,100326.55
2023-06-18T19:46:22.728Z,100325.73
2023-06-18T19:48:50.516Z,100327.17
2023-06-18T19:51:18.236Z,100322.86
2023-06-18T19:53:46.053Z,100328.21
2023-06-18T19:56:14.089Z,100323.17
2023-06-18T19:58:42.055Z,100322.19
2023-06-18T20:01:09.955Z,100325.02
2023-06-18T20:03:39.622Z,100328.33
2023-06-18T20:06:07.720Z,100328.12
2023-06-18T20:08:35.470Z,100326.69
2023-06-18T20:21:42.165Z,100334.05
2023-06-18T20:24:09.894Z,100338.36
2023-06-18T20:26:37.586Z,100344.66
2023-06-18T20:29:05.296Z,100343.86
2023-06-18T20:31:33.097Z,100347.24
2023-06-18T20:34:00.833Z,100347.12
2023-06-18T20:36:29.984Z,100350.88
2023-06-18T20:39:00.056Z,100349.91
2023-06-18T20:41:29.237Z,100348.42
2023-06-18T20:43:56.993Z,100350.74
2023-06-18T20:46:25.242Z,100351.45
2023-06-18T20:48:52.953Z,100351.85
2023-06-18T20:51:35.914Z,100348.03
2023-06-18T20:54:03.715Z,100351.45
2023-06-18T20:56:32.088Z,100352.71
2023-06-18T20:59:00.448Z,100352.50
2023-06-18T21:01:32.313Z,100356.35
2023-06-18T21:04:00.230Z,100359.52
2023-06-18T21:06:27.937Z,100368.37
2023-06-18T21:08:55.685Z,100374.21
2023-06-18T21:11:26.441Z,100375.88
2023-06-18T21:13:54.256Z,100379.02
2023-06-18T21:16:22.192Z,100374.45
2023-06-18T21:18:49.961Z,100373.41
2023-06-18T21:21:18.150Z,100371.97
2023-06-18T21:23:45.867Z,100373.70
2023-06-18T21:26:14.736Z,100368.47
2023-06-18T21:28:42.743Z,100362.61
2023-06-18T21:31:11.723Z,100361.27
2023-06-18T21:33:39.452Z,100363.66
2023-06-18T21:36:07.277Z,100363.88
2023-06-18T21:38:35.002Z,100365.20
2023-06-18T21:41:02.728Z,100367.09
2023-06-18T21:43:30.420Z,100367.76
2023-06-18T21:45:58.720Z,100368.38
2023-06-18T21:48:27.674Z,100368.00
2023-06-18T21:50:55.523Z,100366.44
2023-06-18T21:53:26.082Z,100371.40
2023-06-18T21:55:54.305Z,100372.92
2023-06-18T21:58:23.277Z,100372.72
2023-06-18T22:00:50.987Z,100374.36
2023-06-18T22:03:21.145Z,100373.55
2023-06-18T22:05:48.915Z,100372.32
2023-06-18T22:08:24.402Z,100369.23
2023-06-18T22:10:52.850Z,100371.16
2023-06-18T22:13:20.640Z,100370.35
2023-06-18T22:15:48.356Z,100369.16
2023-06-18T22:18:16.073Z,100372.41
2023-06-18T22:20:43.765Z,100373.27
2023-06-18T22:23:11.511Z,100371.57
2023-06-18T22:25:39.179Z,100373.21
2023-06-18T22:28:06.897Z,100371.13
2023-06-18T22:30:34.584Z,100376.13
2023-06-18T22:33:02.282Z,100376.10
2023-06-18T22:35:29.992Z,100372.04
2023-06-18T22:37:57.726Z,100372.75
2023-06-18T22:40:27.212Z,100375.09
2023-06-18T22:42:55.749Z,100375.91
2023-06-18T22:45:23.802Z,100374.72
2023-06-18T22:47:51.890Z,100377.67
2023-06-18T22:50:19.664Z,100374.20
2023-06-18T22:52:47.491Z,100368.69
2023-06-18T22:55:15.284Z,100368.37
2023-06-18T22:57:45.376Z,100371.46
2023-06-18T23:00:13.605Z,100369.70
2023-06-18T23:02:41.521Z,100374.41
2023-06-18T23:05:09.657Z,100373.31
2023-06-18T23:07:37.421Z,100379.30
2023-06-18T23:10:05.925Z,100377.58
2023-06-18T23:12:33.752Z,100375.58
2023-06-18T23:15:01.454Z,100370.94
2023-06-18T23:17:30.229Z,100363.29
2023-06-18T23:19:57.936Z,100356.20
2023-06-18T23:22:28.098Z,100357.31
2023-06-18T23:24:55.921Z,100356.74
2023-06-18T23:27:23.597Z,100356.95
2023-06-18T23:29:51.290Z,100357.23
2023-06-18T23:32:18.927Z,100358.09
2023-06-18T23:34:47.192Z,100361.09
2023-06-18T23:37:15.086Z,100362.61
2023-06-18T23:39:42.736Z,100361.95
2023-06-18T23:42:10.379Z,100364.94
2023-06-18T23:44:38.135Z,100365.55
2023-06-18T23:47:06.098Z,100368.49
2023-06-18T23:49:34.165Z,100363.67
2023-06-18T23:52:02.003Z,100361.30
2023-06-18T23:54:29.938Z,100360.36
